Terminal Aerodrome Forecast
Issued by NWS Sterling, VA

Current Version | Previous Version | Text Only | Print | Product List | Glossary Off
Versions: 1 2 3 4 5 6 7 8 9 10 11 12 13 14

000
FTUS41 KLWX 311126
TAFMRB
TAF
KMRB 311126Z 3112/0112 VRB03KT P6SM BKN080
     FM312200 22004KT P6SM SCT080
     FM010800 00000KT P6SM FEW250=

USA.gov is the U.S. government's official web portal to all federal, state and local government web resources and services.